sensor_id;sensor_type;location;lat;lon;timestamp;P1;durP1;ratioP1;P2;durP2;ratioP2
75691;SDS011;64307;52.508;6.090;2023-08-07T00:00:02;8.05;;;1.00;;
75691;SDS011;64307;52.508;6.090;2023-08-07T00:02:28;7.30;;;1.20;;
75691;SDS011;64307;52.508;6.090;2023-08-07T00:04:54;7.22;;;0.95;;
75691;SDS011;64307;52.508;6.090;2023-08-07T00:07:19;7.13;;;0.80;;
75691;SDS011;64307;52.508;6.090;2023-08-07T00:09:44;9.77;;;1.23;;
75691;SDS011;64307;52.508;6.090;2023-08-07T00:12:10;5.63;;;1.07;;
75691;SDS011;64307;52.508;6.090;2023-08-07T00:14:35;7.97;;;1.05;;
75691;SDS011;64307;52.508;6.090;2023-08-07T00:17:01;5.97;;;0.80;;
75691;SDS011;64307;52.508;6.090;2023-08-07T00:19:26;10.93;;;1.13;;
75691;SDS011;64307;52.508;6.090;2023-08-07T00:21:52;8.55;;;0.93;;
75691;SDS011;64307;52.508;6.090;2023-08-07T00:24:18;10.10;;;0.77;;
75691;SDS011;64307;52.508;6.090;2023-08-07T00:26:43;8.80;;;0.90;;
75691;SDS011;64307;52.508;6.090;2023-08-07T00:29:08;9.30;;;1.03;;
75691;SDS011;64307;52.508;6.090;2023-08-07T00:31:34;5.93;;;0.80;;
75691;SDS011;64307;52.508;6.090;2023-08-07T00:33:59;10.77;;;0.90;;
75691;SDS011;64307;52.508;6.090;2023-08-07T00:36:24;11.98;;;1.10;;
75691;SDS011;64307;52.508;6.090;2023-08-07T00:38:50;9.15;;;1.10;;
75691;SDS011;64307;52.508;6.090;2023-08-07T00:41:16;10.10;;;0.93;;
75691;SDS011;64307;52.508;6.090;2023-08-07T00:43:43;11.45;;;0.90;;
75691;SDS011;64307;52.508;6.090;2023-08-07T00:46:08;5.78;;;1.23;;
75691;SDS011;64307;52.508;6.090;2023-08-07T00:48:33;11.10;;;1.05;;
75691;SDS011;64307;52.508;6.090;2023-08-07T00:50:59;6.32;;;1.05;;
75691;SDS011;64307;52.508;6.090;2023-08-07T00:53:24;8.90;;;1.25;;
75691;SDS011;64307;52.508;6.090;2023-08-07T00:55:50;12.50;;;1.23;;
75691;SDS011;64307;52.508;6.090;2023-08-07T00:58:16;6.82;;;1.20;;
75691;SDS011;64307;52.508;6.090;2023-08-07T01:00:41;10.73;;;1.35;;
75691;SDS011;64307;52.508;6.090;2023-08-07T01:03:07;8.85;;;1.75;;
75691;SDS011;64307;52.508;6.090;2023-08-07T01:05:33;8.23;;;1.23;;
75691;SDS011;64307;52.508;6.090;2023-08-07T01:07:59;8.77;;;2.08;;
75691;SDS011;64307;52.508;6.090;2023-08-07T01:10:30;7.45;;;1.08;;
75691;SDS011;64307;52.508;6.090;2023-08-07T01:13:05;6.13;;;1.23;;
75691;SDS011;64307;52.508;6.090;2023-08-07T01:15:40;7.07;;;1.10;;
75691;SDS011;64307;52.508;6.090;2023-08-07T01:18:06;5.00;;;1.45;;
75691;SDS011;64307;52.508;6.090;2023-08-07T01:20:32;3.55;;;0.70;;
75691;SDS011;64307;52.508;6.090;2023-08-07T01:22:58;6.38;;;0.80;;
75691;SDS011;64307;52.508;6.090;2023-08-07T01:25:23;3.20;;;0.95;;
75691;SDS011;64307;52.508;6.090;2023-08-07T01:30:18;6.07;;;1.15;;
75691;SDS011;64307;52.508;6.090;2023-08-07T01:33:01;5.72;;;0.95;;
75691;SDS011;64307;52.508;6.090;2023-08-07T01:35:37;5.22;;;1.38;;
75691;SDS011;64307;52.508;6.090;2023-08-07T01:38:07;8.52;;;1.33;;
75691;SDS011;64307;52.508;6.090;2023-08-07T01:40:33;5.70;;;0.80;;
75691;SDS011;64307;52.508;6.090;2023-08-07T01:43:02;6.28;;;1.02;;
75691;SDS011;64307;52.508;6.090;2023-08-07T01:45:28;7.38;;;0.68;;
75691;SDS011;64307;52.508;6.090;2023-08-07T01:47:54;7.22;;;1.00;;
75691;SDS011;64307;52.508;6.090;2023-08-07T01:50:20;7.10;;;0.80;;
75691;SDS011;64307;52.508;6.090;2023-08-07T01:52:46;7.13;;;1.42;;
75691;SDS011;64307;52.508;6.090;2023-08-07T01:55:15;6.10;;;1.10;;
75691;SDS011;64307;52.508;6.090;2023-08-07T01:57:41;4.93;;;1.00;;
75691;SDS011;64307;52.508;6.090;2023-08-07T02:00:07;8.30;;;1.17;;
75691;SDS011;64307;52.508;6.090;2023-08-07T02:02:33;5.88;;;0.90;;
75691;SDS011;64307;52.508;6.090;2023-08-07T02:04:59;10.32;;;1.42;;
75691;SDS011;64307;52.508;6.090;2023-08-07T02:07:24;6.32;;;0.98;;
75691;SDS011;64307;52.508;6.090;2023-08-07T02:09:49;6.03;;;1.10;;
75691;SDS011;64307;52.508;6.090;2023-08-07T02:12:15;5.33;;;0.53;;
75691;SDS011;64307;52.508;6.090;2023-08-07T02:14:40;3.50;;;0.50;;
75691;SDS011;64307;52.508;6.090;2023-08-07T02:17:05;2.55;;;0.43;;
75691;SDS011;64307;52.508;6.090;2023-08-07T02:19:31;4.77;;;0.67;;
75691;SDS011;64307;52.508;6.090;2023-08-07T02:21:57;3.15;;;0.73;;
75691;SDS011;64307;52.508;6.090;2023-08-07T02:24:22;4.37;;;0.50;;
75691;SDS011;64307;52.508;6.090;2023-08-07T02:26:47;6.45;;;0.50;;
75691;SDS011;64307;52.508;6.090;2023-08-07T02:29:12;3.97;;;0.70;;
75691;SDS011;64307;52.508;6.090;2023-08-07T02:31:38;3.70;;;0.75;;
75691;SDS011;64307;52.508;6.090;2023-08-07T02:34:03;5.45;;;0.50;;
75691;SDS011;64307;52.508;6.090;2023-08-07T02:36:30;3.85;;;0.52;;
75691;SDS011;64307;52.508;6.090;2023-08-07T02:38:55;3.08;;;0.50;;
75691;SDS011;64307;52.508;6.090;2023-08-07T02:41:20;5.40;;;0.80;;
75691;SDS011;64307;52.508;6.090;2023-08-07T02:43:45;6.80;;;0.57;;
75691;SDS011;64307;52.508;6.090;2023-08-07T02:46:11;5.25;;;0.70;;
75691;SDS011;64307;52.508;6.090;2023-08-07T02:48:36;5.25;;;0.90;;
75691;SDS011;64307;52.508;6.090;2023-08-07T02:51:02;6.00;;;0.75;;
75691;SDS011;64307;52.508;6.090;2023-08-07T02:53:27;3.75;;;1.10;;
75691;SDS011;64307;52.508;6.090;2023-08-07T02:55:53;3.92;;;0.80;;
75691;SDS011;64307;52.508;6.090;2023-08-07T02:58:19;7.50;;;1.10;;
75691;SDS011;64307;52.508;6.090;2023-08-07T03:00:46;10.73;;;1.35;;
75691;SDS011;64307;52.508;6.090;2023-08-07T03:03:11;5.32;;;0.63;;
75691;SDS011;64307;52.508;6.090;2023-08-07T03:05:36;5.53;;;1.10;;
75691;SDS011;64307;52.508;6.090;2023-08-07T03:08:02;4.95;;;0.70;;
75691;SDS011;64307;52.508;6.090;2023-08-07T03:10:27;4.47;;;0.85;;
75691;SDS011;64307;52.508;6.090;2023-08-07T03:12:52;8.97;;;1.13;;
75691;SDS011;64307;52.508;6.090;2023-08-07T03:15:18;7.57;;;0.90;;
75691;SDS011;64307;52.508;6.090;2023-08-07T03:17:43;7.63;;;1.00;;
75691;SDS011;64307;52.508;6.090;2023-08-07T03:20:08;6.43;;;0.93;;
75691;SDS011;64307;52.508;6.090;2023-08-07T03:22:34;4.65;;;0.98;;
75691;SDS011;64307;52.508;6.090;2023-08-07T03:25:00;6.43;;;1.13;;
75691;SDS011;64307;52.508;6.090;2023-08-07T03:27:25;6.28;;;1.00;;
75691;SDS011;64307;52.508;6.090;2023-08-07T03:29:50;9.43;;;1.42;;
75691;SDS011;64307;52.508;6.090;2023-08-07T03:32:16;7.05;;;1.33;;
75691;SDS011;64307;52.508;6.090;2023-08-07T03:34:41;13.20;;;2.13;;
75691;SDS011;64307;52.508;6.090;2023-08-07T03:37:06;9.55;;;1.65;;
75691;SDS011;64307;52.508;6.090;2023-08-07T03:39:32;9.95;;;1.52;;
75691;SDS011;64307;52.508;6.090;2023-08-07T03:41:57;9.60;;;1.90;;
75691;SDS011;64307;52.508;6.090;2023-08-07T03:44:22;11.33;;;2.13;;
75691;SDS011;64307;52.508;6.090;2023-08-07T03:46:47;16.87;;;1.80;;
75691;SDS011;64307;52.508;6.090;2023-08-07T03:49:13;10.37;;;1.83;;
75691;SDS011;64307;52.508;6.090;2023-08-07T03:51:38;18.20;;;1.90;;
75691;SDS011;64307;52.508;6.090;2023-08-07T03:54:04;12.10;;;1.53;;
75691;SDS011;64307;52.508;6.090;2023-08-07T03:56:29;10.50;;;1.70;;
75691;SDS011;64307;52.508;6.090;2023-08-07T03:59:01;11.20;;;2.00;;
75691;SDS011;64307;52.508;6.090;2023-08-07T04:01:26;13.52;;;1.92;;
75691;SDS011;64307;52.508;6.090;2023-08-07T04:03:51;14.63;;;2.07;;
75691;SDS011;64307;52.508;6.090;2023-08-07T04:06:16;12.33;;;1.80;;
75691;SDS011;64307;52.508;6.090;2023-08-07T04:08:44;10.48;;;1.50;;
75691;SDS011;64307;52.508;6.090;2023-08-07T04:11:10;8.82;;;1.27;;
75691;SDS011;64307;52.508;6.090;2023-08-07T04:13:35;8.68;;;1.20;;
75691;SDS011;64307;52.508;6.090;2023-08-07T04:16:01;6.15;;;1.63;;
75691;SDS011;64307;52.508;6.090;2023-08-07T04:18:29;6.00;;;1.48;;
75691;SDS011;64307;52.508;6.090;2023-08-07T04:20:54;10.15;;;1.38;;
75691;SDS011;64307;52.508;6.090;2023-08-07T04:23:21;7.95;;;1.58;;
75691;SDS011;64307;52.508;6.090;2023-08-07T04:25:47;7.43;;;1.55;;
75691;SDS011;64307;52.508;6.090;2023-08-07T04:28:13;6.97;;;1.20;;
75691;SDS011;64307;52.508;6.090;2023-08-07T04:30:38;7.63;;;1.55;;
75691;SDS011;64307;52.508;6.090;2023-08-07T04:33:04;7.60;;;1.30;;
75691;SDS011;64307;52.508;6.090;2023-08-07T04:35:30;7.53;;;1.42;;
75691;SDS011;64307;52.508;6.090;2023-08-07T04:37:55;7.20;;;1.50;;
75691;SDS011;64307;52.508;6.090;2023-08-07T04:40:21;6.85;;;1.80;;
75691;SDS011;64307;52.508;6.090;2023-08-07T04:42:46;5.40;;;1.47;;
75691;SDS011;64307;52.508;6.090;2023-08-07T04:45:11;8.80;;;1.40;;
75691;SDS011;64307;52.508;6.090;2023-08-07T04:47:36;7.97;;;2.30;;
75691;SDS011;64307;52.508;6.090;2023-08-07T04:50:02;8.07;;;1.70;;
75691;SDS011;64307;52.508;6.090;2023-08-07T04:52:27;12.70;;;2.33;;
75691;SDS011;64307;52.508;6.090;2023-08-07T04:54:53;12.88;;;1.95;;
75691;SDS011;64307;52.508;6.090;2023-08-07T04:57:19;10.57;;;1.95;;
75691;SDS011;64307;52.508;6.090;2023-08-07T04:59:44;13.82;;;2.05;;
75691;SDS011;64307;52.508;6.090;2023-08-07T05:02:11;11.20;;;2.00;;
75691;SDS011;64307;52.508;6.090;2023-08-07T05:04:36;9.60;;;2.00;;
75691;SDS011;64307;52.508;6.090;2023-08-07T05:07:01;10.27;;;2.10;;
75691;SDS011;64307;52.508;6.090;2023-08-07T05:09:27;11.55;;;1.83;;
75691;SDS011;64307;52.508;6.090;2023-08-07T05:11:52;13.10;;;2.10;;
75691;SDS011;64307;52.508;6.090;2023-08-07T05:14:17;14.60;;;2.20;;
75691;SDS011;64307;52.508;6.090;2023-08-07T05:16:42;13.43;;;2.45;;
75691;SDS011;64307;52.508;6.090;2023-08-07T05:19:08;8.93;;;2.20;;
75691;SDS011;64307;52.508;6.090;2023-08-07T05:21:34;10.68;;;3.13;;
75691;SDS011;64307;52.508;6.090;2023-08-07T05:23:59;10.77;;;2.03;;
75691;SDS011;64307;52.508;6.090;2023-08-07T05:26:25;9.20;;;1.90;;
75691;SDS011;64307;52.508;6.090;2023-08-07T05:28:50;14.63;;;2.20;;
75691;SDS011;64307;52.508;6.090;2023-08-07T05:31:15;10.80;;;2.30;;
75691;SDS011;64307;52.508;6.090;2023-08-07T05:33:40;11.37;;;1.80;;
75691;SDS011;64307;52.508;6.090;2023-08-07T05:36:06;8.00;;;1.70;;
75691;SDS011;64307;52.508;6.090;2023-08-07T05:38:31;10.48;;;1.65;;
75691;SDS011;64307;52.508;6.090;2023-08-07T05:40:57;12.43;;;2.15;;
75691;SDS011;64307;52.508;6.090;2023-08-07T05:43:22;7.88;;;1.83;;
75691;SDS011;64307;52.508;6.090;2023-08-07T05:45:49;9.80;;;1.58;;
75691;SDS011;64307;52.508;6.090;2023-08-07T05:48:14;8.82;;;1.42;;
75691;SDS011;64307;52.508;6.090;2023-08-07T05:50:41;6.90;;;1.52;;
75691;SDS011;64307;52.508;6.090;2023-08-07T05:53:07;9.50;;;2.13;;
75691;SDS011;64307;52.508;6.090;2023-08-07T05:55:32;10.95;;;1.48;;
75691;SDS011;64307;52.508;6.090;2023-08-07T05:57:58;10.27;;;1.80;;
75691;SDS011;64307;52.508;6.090;2023-08-07T06:00:23;8.80;;;2.20;;
75691;SDS011;64307;52.508;6.090;2023-08-07T06:02:50;8.73;;;1.58;;
75691;SDS011;64307;52.508;6.090;2023-08-07T06:05:15;10.63;;;1.75;;
75691;SDS011;64307;52.508;6.090;2023-08-07T06:07:41;8.63;;;1.77;;
75691;SDS011;64307;52.508;6.090;2023-08-07T06:10:06;7.88;;;1.92;;
75691;SDS011;64307;52.508;6.090;2023-08-07T06:12:32;9.32;;;2.22;;
75691;SDS011;64307;52.508;6.090;2023-08-07T06:14:57;13.75;;;2.13;;
75691;SDS011;64307;52.508;6.090;2023-08-07T06:17:23;9.30;;;1.75;;
75691;SDS011;64307;52.508;6.090;2023-08-07T06:19:48;11.48;;;2.05;;
75691;SDS011;64307;52.508;6.090;2023-08-07T06:22:13;14.63;;;2.77;;
75691;SDS011;64307;52.508;6.090;2023-08-07T06:24:39;8.82;;;1.98;;
75691;SDS011;64307;52.508;6.090;2023-08-07T06:27:04;7.63;;;1.80;;
75691;SDS011;64307;52.508;6.090;2023-08-07T06:29:29;9.23;;;2.70;;
75691;SDS011;64307;52.508;6.090;2023-08-07T06:31:55;11.07;;;1.85;;
75691;SDS011;64307;52.508;6.090;2023-08-07T06:34:20;11.07;;;2.17;;
75691;SDS011;64307;52.508;6.090;2023-08-07T06:36:45;10.50;;;2.55;;
75691;SDS011;64307;52.508;6.090;2023-08-07T06:39:11;14.90;;;2.00;;
75691;SDS011;64307;52.508;6.090;2023-08-07T06:41:37;15.40;;;2.17;;
75691;SDS011;64307;52.508;6.090;2023-08-07T06:44:02;9.50;;;1.65;;
75691;SDS011;64307;52.508;6.090;2023-08-07T06:46:27;13.38;;;2.55;;
75691;SDS011;64307;52.508;6.090;2023-08-07T06:48:53;14.18;;;2.28;;
75691;SDS011;64307;52.508;6.090;2023-08-07T06:51:19;10.55;;;2.10;;
75691;SDS011;64307;52.508;6.090;2023-08-07T06:53:44;11.10;;;1.92;;
75691;SDS011;64307;52.508;6.090;2023-08-07T06:56:10;12.88;;;1.80;;
75691;SDS011;64307;52.508;6.090;2023-08-07T06:58:35;11.97;;;1.97;;
75691;SDS011;64307;52.508;6.090;2023-08-07T07:01:00;10.40;;;1.80;;
75691;SDS011;64307;52.508;6.090;2023-08-07T07:03:26;11.77;;;1.85;;
75691;SDS011;64307;52.508;6.090;2023-08-07T07:05:51;8.80;;;1.57;;
75691;SDS011;64307;52.508;6.090;2023-08-07T07:08:16;10.48;;;2.00;;
75691;SDS011;64307;52.508;6.090;2023-08-07T07:10:41;9.23;;;1.53;;
75691;SDS011;64307;52.508;6.090;2023-08-07T07:13:08;6.78;;;1.17;;
75691;SDS011;64307;52.508;6.090;2023-08-07T07:15:34;9.07;;;1.67;;
75691;SDS011;64307;52.508;6.090;2023-08-07T07:18:00;11.52;;;1.58;;
75691;SDS011;64307;52.508;6.090;2023-08-07T07:20:26;9.70;;;1.65;;
75691;SDS011;64307;52.508;6.090;2023-08-07T07:22:51;8.43;;;1.25;;
75691;SDS011;64307;52.508;6.090;2023-08-07T07:25:17;9.75;;;2.00;;
75691;SDS011;64307;52.508;6.090;2023-08-07T07:27:42;7.10;;;1.80;;
75691;SDS011;64307;52.508;6.090;2023-08-07T07:30:08;6.78;;;1.17;;
75691;SDS011;64307;52.508;6.090;2023-08-07T07:32:33;7.32;;;1.08;;
75691;SDS011;64307;52.508;6.090;2023-08-07T07:34:59;7.43;;;1.67;;
75691;SDS011;64307;52.508;6.090;2023-08-07T07:37:24;5.23;;;1.00;;
75691;SDS011;64307;52.508;6.090;2023-08-07T07:39:49;7.15;;;1.00;;
75691;SDS011;64307;52.508;6.090;2023-08-07T07:42:15;7.85;;;1.20;;
75691;SDS011;64307;52.508;6.090;2023-08-07T07:44:40;8.73;;;1.47;;
75691;SDS011;64307;52.508;6.090;2023-08-07T07:47:05;4.90;;;1.15;;
75691;SDS011;64307;52.508;6.090;2023-08-07T07:49:33;6.07;;;1.45;;
75691;SDS011;64307;52.508;6.090;2023-08-07T07:51:59;11.20;;;1.52;;
75691;SDS011;64307;52.508;6.090;2023-08-07T07:54:25;9.25;;;1.83;;
75691;SDS011;64307;52.508;6.090;2023-08-07T07:56:50;6.87;;;1.20;;
75691;SDS011;64307;52.508;6.090;2023-08-07T07:59:15;10.98;;;1.80;;
75691;SDS011;64307;52.508;6.090;2023-08-07T08:01:42;10.65;;;1.50;;
75691;SDS011;64307;52.508;6.090;2023-08-07T08:04:07;9.10;;;1.55;;
75691;SDS011;64307;52.508;6.090;2023-08-07T08:06:34;7.22;;;1.77;;
75691;SDS011;64307;52.508;6.090;2023-08-07T08:09:00;10.38;;;1.60;;
75691;SDS011;64307;52.508;6.090;2023-08-07T08:11:29;8.18;;;2.08;;
75691;SDS011;64307;52.508;6.090;2023-08-07T08:13:54;8.43;;;1.55;;
75691;SDS011;64307;52.508;6.090;2023-08-07T08:16:20;11.23;;;1.98;;
75691;SDS011;64307;52.508;6.090;2023-08-07T08:18:46;6.70;;;1.33;;
75691;SDS011;64307;52.508;6.090;2023-08-07T08:21:11;7.43;;;1.73;;
75691;SDS011;64307;52.508;6.090;2023-08-07T08:23:36;10.98;;;1.50;;
75691;SDS011;64307;52.508;6.090;2023-08-07T08:26:03;9.90;;;1.50;;
75691;SDS011;64307;52.508;6.090;2023-08-07T08:28:28;7.75;;;1.20;;
75691;SDS011;64307;52.508;6.090;2023-08-07T08:30:54;8.05;;;1.95;;
75691;SDS011;64307;52.508;6.090;2023-08-07T08:33:19;10.05;;;2.08;;
75691;SDS011;64307;52.508;6.090;2023-08-07T08:35:45;8.60;;;1.73;;
75691;SDS011;64307;52.508;6.090;2023-08-07T08:38:10;8.05;;;1.40;;
75691;SDS011;64307;52.508;6.090;2023-08-07T08:40:36;10.63;;;2.20;;
75691;SDS011;64307;52.508;6.090;2023-08-07T08:43:03;10.43;;;1.55;;
75691;SDS011;64307;52.508;6.090;2023-08-07T08:45:30;10.75;;;1.60;;
75691;SDS011;64307;52.508;6.090;2023-08-07T08:48:00;7.38;;;1.75;;
75691;SDS011;64307;52.508;6.090;2023-08-07T08:50:28;8.65;;;1.35;;
75691;SDS011;64307;52.508;6.090;2023-08-07T08:52:54;6.82;;;1.42;;
75691;SDS011;64307;52.508;6.090;2023-08-07T08:55:20;8.00;;;0.90;;
75691;SDS011;64307;52.508;6.090;2023-08-07T08:57:46;7.72;;;1.25;;
75691;SDS011;64307;52.508;6.090;2023-08-07T09:00:12;5.97;;;1.52;;
75691;SDS011;64307;52.508;6.090;2023-08-07T09:02:43;10.18;;;1.30;;
75691;SDS011;64307;52.508;6.090;2023-08-07T09:05:09;8.90;;;1.13;;
75691;SDS011;64307;52.508;6.090;2023-08-07T09:07:35;11.43;;;1.85;;
75691;SDS011;64307;52.508;6.090;2023-08-07T09:10:01;8.25;;;1.13;;
75691;SDS011;64307;52.508;6.090;2023-08-07T09:12:29;5.57;;;1.23;;
75691;SDS011;64307;52.508;6.090;2023-08-07T09:14:58;8.95;;;1.73;;
75691;SDS011;64307;52.508;6.090;2023-08-07T09:17:24;8.73;;;1.20;;
75691;SDS011;64307;52.508;6.090;2023-08-07T09:19:54;8.52;;;1.50;;
75691;SDS011;64307;52.508;6.090;2023-08-07T09:22:19;5.35;;;1.27;;
75691;SDS011;64307;52.508;6.090;2023-08-07T09:24:45;5.40;;;0.82;;
75691;SDS011;64307;52.508;6.090;2023-08-07T09:27:10;5.22;;;1.58;;
75691;SDS011;64307;52.508;6.090;2023-08-07T09:29:36;5.65;;;1.45;;
75691;SDS011;64307;52.508;6.090;2023-08-07T09:32:08;5.85;;;1.05;;
75691;SDS011;64307;52.508;6.090;2023-08-07T09:34:34;5.50;;;1.23;;
75691;SDS011;64307;52.508;6.090;2023-08-07T09:36:59;4.88;;;0.77;;
75691;SDS011;64307;52.508;6.090;2023-08-07T09:39:24;6.00;;;1.13;;
75691;SDS011;64307;52.508;6.090;2023-08-07T09:41:53;6.18;;;1.23;;
75691;SDS011;64307;52.508;6.090;2023-08-07T09:44:18;4.82;;;1.23;;
75691;SDS011;64307;52.508;6.090;2023-08-07T09:46:44;7.05;;;1.55;;
75691;SDS011;64307;52.508;6.090;2023-08-07T09:49:10;8.40;;;1.33;;
75691;SDS011;64307;52.508;6.090;2023-08-07T09:51:42;8.05;;;1.33;;
75691;SDS011;64307;52.508;6.090;2023-08-07T09:54:08;5.15;;;0.73;;
75691;SDS011;64307;52.508;6.090;2023-08-07T09:56:34;7.57;;;1.35;;
75691;SDS011;64307;52.508;6.090;2023-08-07T09:59:00;5.40;;;0.93;;
75691;SDS011;64307;52.508;6.090;2023-08-07T10:01:25;5.20;;;1.30;;
75691;SDS011;64307;52.508;6.090;2023-08-07T10:03:51;5.80;;;1.47;;
75691;SDS011;64307;52.508;6.090;2023-08-07T10:06:17;10.93;;;1.00;;
75691;SDS011;64307;52.508;6.090;2023-08-07T10:08:44;10.15;;;1.52;;
75691;SDS011;64307;52.508;6.090;2023-08-07T10:11:10;5.90;;;0.98;;
75691;SDS011;64307;52.508;6.090;2023-08-07T10:13:37;6.97;;;1.50;;
75691;SDS011;64307;52.508;6.090;2023-08-07T10:16:03;10.40;;;1.52;;
75691;SDS011;64307;52.508;6.090;2023-08-07T10:18:29;9.43;;;1.58;;
75691;SDS011;64307;52.508;6.090;2023-08-07T10:20:55;8.70;;;1.80;;
75691;SDS011;64307;52.508;6.090;2023-08-07T10:23:22;7.05;;;1.45;;
75691;SDS011;64307;52.508;6.090;2023-08-07T10:25:48;8.13;;;1.20;;
75691;SDS011;64307;52.508;6.090;2023-08-07T10:28:16;5.72;;;1.33;;
75691;SDS011;64307;52.508;6.090;2023-08-07T10:30:44;6.07;;;1.17;;
75691;SDS011;64307;52.508;6.090;2023-08-07T10:33:10;7.72;;;1.23;;
75691;SDS011;64307;52.508;6.090;2023-08-07T10:35:37;7.70;;;1.42;;
75691;SDS011;64307;52.508;6.090;2023-08-07T10:38:10;6.25;;;1.08;;
75691;SDS011;64307;52.508;6.090;2023-08-07T10:43:23;7.43;;;1.42;;
75691;SDS011;64307;52.508;6.090;2023-08-07T10:45:49;9.30;;;1.23;;
75691;SDS011;64307;52.508;6.090;2023-08-07T10:48:18;4.33;;;1.17;;
75691;SDS011;64307;52.508;6.090;2023-08-07T10:50:51;10.85;;;1.73;;
75691;SDS011;64307;52.508;6.090;2023-08-07T10:53:19;8.10;;;1.33;;
75691;SDS011;64307;52.508;6.090;2023-08-07T10:55:52;8.07;;;1.63;;
75691;SDS011;64307;52.508;6.090;2023-08-07T10:58:51;4.93;;;1.13;;
75691;SDS011;64307;52.508;6.090;2023-08-07T11:01:21;6.28;;;1.55;;
75691;SDS011;64307;52.508;6.090;2023-08-07T11:03:53;6.30;;;1.38;;
75691;SDS011;64307;52.508;6.090;2023-08-07T11:06:26;9.32;;;1.33;;
75691;SDS011;64307;52.508;6.090;2023-08-07T11:08:56;3.40;;;1.13;;
75691;SDS011;64307;52.508;6.090;2023-08-07T11:11:21;7.22;;;1.02;;
75691;SDS011;64307;52.508;6.090;2023-08-07T11:13:46;6.43;;;1.38;;
75691;SDS011;64307;52.508;6.090;2023-08-07T11:16:12;4.70;;;1.30;;
75691;SDS011;64307;52.508;6.090;2023-08-07T11:18:38;4.15;;;1.33;;
75691;SDS011;64307;52.508;6.090;2023-08-07T11:21:06;4.90;;;1.15;;
75691;SDS011;64307;52.508;6.090;2023-08-07T11:23:32;6.82;;;1.20;;
75691;SDS011;64307;52.508;6.090;2023-08-07T11:25:58;6.53;;;1.15;;
75691;SDS011;64307;52.508;6.090;2023-08-07T11:28:23;4.53;;;1.52;;
75691;SDS011;64307;52.508;6.090;2023-08-07T11:30:50;3.78;;;0.93;;
75691;SDS011;64307;52.508;6.090;2023-08-07T11:33:19;8.13;;;1.45;;
75691;SDS011;64307;52.508;6.090;2023-08-07T11:35:45;10.13;;;1.58;;
75691;SDS011;64307;52.508;6.090;2023-08-07T11:38:11;7.32;;;1.20;;
75691;SDS011;64307;52.508;6.090;2023-08-07T11:40:37;5.70;;;1.23;;
75691;SDS011;64307;52.508;6.090;2023-08-07T11:43:02;5.80;;;1.00;;
75691;SDS011;64307;52.508;6.090;2023-08-07T11:45:28;5.18;;;1.23;;
75691;SDS011;64307;52.508;6.090;2023-08-07T11:47:54;5.82;;;0.80;;
75691;SDS011;64307;52.508;6.090;2023-08-07T11:50:22;5.72;;;1.13;;
75691;SDS011;64307;52.508;6.090;2023-08-07T11:52:47;6.13;;;1.08;;
75691;SDS011;64307;52.508;6.090;2023-08-07T11:55:16;4.18;;;0.95;;
75691;SDS011;64307;52.508;6.090;2023-08-07T11:57:44;6.80;;;1.38;;
75691;SDS011;64307;52.508;6.090;2023-08-07T12:00:11;4.45;;;0.88;;
75691;SDS011;64307;52.508;6.090;2023-08-07T12:02:41;3.67;;;1.02;;
75691;SDS011;64307;52.508;6.090;2023-08-07T12:05:11;4.03;;;1.27;;
75691;SDS011;64307;52.508;6.090;2023-08-07T12:07:37;5.22;;;0.93;;
75691;SDS011;64307;52.508;6.090;2023-08-07T12:10:06;7.65;;;0.95;;
75691;SDS011;64307;52.508;6.090;2023-08-07T12:12:33;4.25;;;0.68;;
75691;SDS011;64307;52.508;6.090;2023-08-07T12:15:00;6.53;;;1.20;;
75691;SDS011;64307;52.508;6.090;2023-08-07T12:17:25;3.88;;;1.13;;
75691;SDS011;64307;52.508;6.090;2023-08-07T12:19:50;4.40;;;0.93;;
75691;SDS011;64307;52.508;6.090;2023-08-07T12:22:18;5.05;;;0.65;;
75691;SDS011;64307;52.508;6.090;2023-08-07T12:24:44;6.15;;;1.00;;
75691;SDS011;64307;52.508;6.090;2023-08-07T12:27:10;6.55;;;1.30;;
75691;SDS011;64307;52.508;6.090;2023-08-07T12:29:36;3.97;;;1.00;;
75691;SDS011;64307;52.508;6.090;2023-08-07T12:32:01;2.92;;;0.82;;
75691;SDS011;64307;52.508;6.090;2023-08-07T12:34:27;6.15;;;1.13;;
75691;SDS011;64307;52.508;6.090;2023-08-07T12:36:53;4.45;;;1.20;;
75691;SDS011;64307;52.508;6.090;2023-08-07T12:39:19;3.17;;;0.90;;
75691;SDS011;64307;52.508;6.090;2023-08-07T12:41:45;6.13;;;1.08;;
75691;SDS011;64307;52.508;6.090;2023-08-07T12:44:11;6.40;;;1.23;;
75691;SDS011;64307;52.508;6.090;2023-08-07T12:46:37;6.25;;;0.93;;
75691;SDS011;64307;52.508;6.090;2023-08-07T12:49:03;6.00;;;1.00;;
75691;SDS011;64307;52.508;6.090;2023-08-07T12:51:30;7.20;;;1.23;;
75691;SDS011;64307;52.508;6.090;2023-08-07T12:53:55;8.70;;;1.30;;
75691;SDS011;64307;52.508;6.090;2023-08-07T12:56:20;7.63;;;1.23;;
75691;SDS011;64307;52.508;6.090;2023-08-07T12:58:45;5.32;;;0.93;;
75691;SDS011;64307;52.508;6.090;2023-08-07T13:01:11;6.05;;;0.80;;
75691;SDS011;64307;52.508;6.090;2023-08-07T13:03:36;8.53;;;1.23;;
75691;SDS011;64307;52.508;6.090;2023-08-07T13:06:02;4.93;;;0.85;;
75691;SDS011;64307;52.508;6.090;2023-08-07T13:08:30;8.50;;;0.82;;
75691;SDS011;64307;52.508;6.090;2023-08-07T13:10:55;7.82;;;1.23;;
75691;SDS011;64307;52.508;6.090;2023-08-07T13:13:21;5.47;;;0.90;;
75691;SDS011;64307;52.508;6.090;2023-08-07T13:15:46;5.93;;;1.30;;
75691;SDS011;64307;52.508;6.090;2023-08-07T13:18:11;6.28;;;1.45;;
75691;SDS011;64307;52.508;6.090;2023-08-07T13:20:39;6.50;;;1.75;;
75691;SDS011;64307;52.508;6.090;2023-08-07T13:23:04;5.95;;;0.90;;
75691;SDS011;64307;52.508;6.090;2023-08-07T13:25:31;8.35;;;1.40;;
75691;SDS011;64307;52.508;6.090;2023-08-07T13:27:56;6.10;;;0.95;;
75691;SDS011;64307;52.508;6.090;2023-08-07T13:30:21;7.88;;;0.98;;
75691;SDS011;64307;52.508;6.090;2023-08-07T13:32:47;8.85;;;1.10;;
75691;SDS011;64307;52.508;6.090;2023-08-07T13:35:12;6.93;;;1.37;;
75691;SDS011;64307;52.508;6.090;2023-08-07T13:37:37;5.17;;;1.23;;
75691;SDS011;64307;52.508;6.090;2023-08-07T13:40:03;4.85;;;0.80;;
75691;SDS011;64307;52.508;6.090;2023-08-07T13:42:30;7.50;;;1.15;;
75691;SDS011;64307;52.508;6.090;2023-08-07T13:44:56;6.40;;;1.35;;
75691;SDS011;64307;52.508;6.090;2023-08-07T13:47:21;7.88;;;1.25;;
75691;SDS011;64307;52.508;6.090;2023-08-07T13:49:46;3.65;;;0.95;;
75691;SDS011;64307;52.508;6.090;2023-08-07T13:52:12;4.43;;;1.05;;
75691;SDS011;64307;52.508;6.090;2023-08-07T13:54:38;7.18;;;1.05;;
75691;SDS011;64307;52.508;6.090;2023-08-07T13:57:03;6.17;;;0.80;;
75691;SDS011;64307;52.508;6.090;2023-08-07T13:59:29;4.20;;;1.02;;
75691;SDS011;64307;52.508;6.090;2023-08-07T14:01:54;3.78;;;1.05;;
75691;SDS011;64307;52.508;6.090;2023-08-07T14:04:22;6.50;;;0.77;;
75691;SDS011;64307;52.508;6.090;2023-08-07T14:06:47;5.53;;;1.13;;
75691;SDS011;64307;52.508;6.090;2023-08-07T14:09:13;8.77;;;1.13;;
75691;SDS011;64307;52.508;6.090;2023-08-07T14:11:39;5.25;;;1.02;;
75691;SDS011;64307;52.508;6.090;2023-08-07T14:14:04;6.28;;;0.98;;
75691;SDS011;64307;52.508;6.090;2023-08-07T14:16:30;5.65;;;1.13;;
75691;SDS011;64307;52.508;6.090;2023-08-07T14:18:56;3.90;;;0.75;;
75691;SDS011;64307;52.508;6.090;2023-08-07T14:21:22;4.32;;;0.73;;
75691;SDS011;64307;52.508;6.090;2023-08-07T14:23:47;4.87;;;1.13;;
75691;SDS011;64307;52.508;6.090;2023-08-07T14:26:14;4.95;;;1.10;;
75691;SDS011;64307;52.508;6.090;2023-08-07T14:28:40;8.48;;;2.67;;
75691;SDS011;64307;52.508;6.090;2023-08-07T14:31:06;5.50;;;1.10;;
75691;SDS011;64307;52.508;6.090;2023-08-07T14:33:34;5.00;;;1.10;;
75691;SDS011;64307;52.508;6.090;2023-08-07T14:36:00;5.97;;;1.45;;
75691;SDS011;64307;52.508;6.090;2023-08-07T14:38:26;4.30;;;1.15;;
75691;SDS011;64307;52.508;6.090;2023-08-07T14:40:51;5.20;;;1.67;;
75691;SDS011;64307;52.508;6.090;2023-08-07T14:43:16;6.88;;;1.20;;